Time;durP1;ratioP1;P1;durP2;ratioP2;P2;SDS_P1;SDS_P2;PMS_P1;PMS_P2;Temp;Humidity;BMP_temperature;BMP_pressure;BME280_temperature;BME280_humidity;BME280_pressure;Samples;Min_cycle;Max_cycle;Signal;HPM_P1;HPM_P2
2023/10/25 05:02:23;;;;;;;40.40;18.87;;;;;;;;;;5552182;23;21028;-72
2023/10/25 05:04:49;;;;;;;31.23;15.93;;;;;;;;;;4972906;28;20411;-71
2023/10/25 05:07:15;;;;;;;33.40;15.00;;;;;;;;;;4973701;28;20432;-72
2023/10/25 05:09:41;;;;;;;37.07;15.10;;;;;;;;;;4955976;28;20416;-71
2023/10/25 05:12:09;;;;;;;34.80;14.73;;;;;;;;;;4973537;28;20416;-71
2023/10/25 05:14:35;;;;;;;27.37;12.90;;;;;;;;;;4973657;28;20492;-72
2023/10/25 05:17:02;;;;;;;28.83;12.60;;;;;;;;;;4996334;23;20550;-71
2023/10/25 05:19:28;;;;;;;26.90;12.43;;;;;;;;;;4973451;28;20416;-72
2023/10/25 05:21:55;;;;;;;30.33;13.60;;;;;;;;;;4973616;28;20547;-72
2023/10/25 05:24:21;;;;;;;25.50;12.00;;;;;;;;;;4973085;28;20428;-71
2023/10/25 05:26:47;;;;;;;29.17;12.57;;;;;;;;;;4973178;28;20423;-72
2023/10/25 05:29:13;;;;;;;30.73;11.90;;;;;;;;;;4973045;28;20404;-71
2023/10/25 05:31:43;;;;;;;21.20;11.20;;;;;;;;;;4972869;28;20828;-71
2023/10/25 05:34:09;;;;;;;31.27;13.70;;;;;;;;;;4973129;28;20412;-69
2023/10/25 05:36:35;;;;;;;26.57;12.27;;;;;;;;;;4972966;28;20471;-70
2023/10/25 05:39:01;;;;;;;28.80;13.60;;;;;;;;;;4972899;28;20423;-71
2023/10/25 05:41:30;;;;;;;23.77;12.53;;;;;;;;;;4972431;28;20532;-70
2023/10/25 05:44:06;;;;;;;30.40;13.50;;;;;;;;;;4972967;28;20832;-70
2023/10/25 05:46:32;;;;;;;32.40;14.00;;;;;;;;;;4973742;28;20439;-71
2023/10/25 05:48:58;;;;;;;22.40;11.83;;;;;;;;;;4972785;28;20428;-71
2023/10/25 05:51:24;;;;;;;27.53;14.07;;;;;;;;;;4973063;28;20419;-71
2023/10/25 05:53:50;;;;;;;35.30;15.63;;;;;;;;;;4972951;28;20478;-71
2023/10/25 05:56:17;;;;;;;28.93;15.20;;;;;;;;;;4972957;28;20443;-71
2023/10/25 05:58:45;;;;;;;26.10;12.33;;;;;;;;;;4972985;28;20827;-68
2023/10/25 06:01:12;;;;;;;26.73;13.50;;;;;;;;;;4972644;28;20518;-68
2023/10/25 06:03:39;;;;;;;28.27;13.30;;;;;;;;;;4971894;28;20519;-69
2023/10/25 06:06:10;;;;;;;27.27;12.27;;;;;;;;;;4963113;28;20440;-70
2023/10/25 06:08:36;;;;;;;28.50;11.00;;;;;;;;;;4945098;28;20471;-69
2023/10/25 06:11:02;;;;;;;25.07;11.60;;;;;;;;;;4962054;28;20407;-69
2023/10/25 06:13:29;;;;;;;33.90;11.70;;;;;;;;;;4963714;28;20426;-69
2023/10/25 06:15:54;;;;;;;21.00;9.97;;;;;;;;;;4962719;28;20456;-69
2023/10/25 06:18:21;;;;;;;20.30;11.80;;;;;;;;;;4966285;28;20423;-69
2023/10/25 06:20:47;;;;;;;22.90;9.93;;;;;;;;;;4972946;28;20463;-69
2023/10/25 06:23:13;;;;;;;25.80;12.07;;;;;;;;;;4976583;28;20488;-69
2023/10/25 06:25:39;;;;;;;15.53;8.70;;;;;;;;;;4976161;28;20436;-70
2023/10/25 06:28:04;;;;;;;22.27;10.60;;;;;;;;;;4976425;28;20419;-73
2023/10/25 06:30:31;;;;;;;26.63;11.13;;;;;;;;;;4976325;28;20501;-69
2023/10/25 06:32:58;;;;;;;21.77;10.80;;;;;;;;;;4976562;28;20787;-72
2023/10/25 06:35:24;;;;;;;19.57;9.20;;;;;;;;;;4976137;28;20436;-71
2023/10/25 06:37:50;;;;;;;18.03;8.60;;;;;;;;;;4965463;28;20424;-70
2023/10/25 06:40:17;;;;;;;19.23;9.60;;;;;;;;;;4958720;28;20456;-70
2023/10/25 06:42:43;;;;;;;16.23;9.13;;;;;;;;;;4968936;28;20424;-69
2023/10/25 06:45:13;;;;;;;23.33;9.60;;;;;;;;;;4972007;28;20435;-74
2023/10/25 06:47:39;;;;;;;22.77;8.90;;;;;;;;;;4975606;28;20420;-69
2023/10/25 06:50:06;;;;;;;25.50;11.73;;;;;;;;;;4959713;28;20926;-69
2023/10/25 06:52:32;;;;;;;20.70;10.40;;;;;;;;;;4971953;28;20432;-69
2023/10/25 06:54:58;;;;;;;19.83;10.83;;;;;;;;;;4975138;28;20428;-69
2023/10/25 06:57:24;;;;;;;26.57;11.03;;;;;;;;;;4975736;28;20424;-70
2023/10/25 06:59:50;;;;;;;23.60;10.50;;;;;;;;;;4944813;29;20834;-69
2023/10/25 07:02:28;;;;;;;22.70;11.33;;;;;;;;;;4956719;29;20420;-69
2023/10/25 07:05:01;;;;;;;14.47;8.70;;;;;;;;;;4956940;28;21011;-68
2023/10/25 07:07:30;;;;;;;21.20;9.90;;;;;;;;;;4956456;29;20496;-69
2023/10/25 07:09:56;;;;;;;18.03;10.13;;;;;;;;;;4956025;28;20950;-69
2023/10/25 07:12:23;;;;;;;18.83;9.33;;;;;;;;;;4956340;29;20468;-69
2023/10/25 07:14:49;;;;;;;21.03;10.30;;;;;;;;;;4956281;28;21078;-69
2023/10/25 07:17:15;;;;;;;17.57;9.57;;;;;;;;;;4955880;29;20463;-69
2023/10/25 07:19:43;;;;;;;16.53;10.13;;;;;;;;;;4955997;28;20443;-70
2023/10/25 07:22:09;;;;;;;23.03;11.87;;;;;;;;;;4942558;28;20487;-70
2023/10/25 07:24:35;;;;;;;24.53;10.77;;;;;;;;;;4975401;28;20902;-70
2023/10/25 07:27:01;;;;;;;19.73;9.90;;;;;;;;;;4974863;28;20428;-70
2023/10/25 07:29:27;;;;;;;20.00;10.40;;;;;;;;;;4973808;28;20423;-70
2023/10/25 07:31:53;;;;;;;20.97;10.37;;;;;;;;;;4975048;28;20840;-69
2023/10/25 07:34:20;;;;;;;22.33;10.63;;;;;;;;;;4975307;28;20426;-69
2023/10/25 07:36:46;;;;;;;20.07;9.80;;;;;;;;;;4975439;28;20440;-70
2023/10/25 07:39:15;;;;;;;21.17;9.20;;;;;;;;;;4971246;28;21029;-69
2023/10/25 07:41:41;;;;;;;13.70;7.90;;;;;;;;;;4957890;29;20488;-70
2023/10/25 07:44:07;;;;;;;14.33;5.50;;;;;;;;;;4958016;28;20413;-69
2023/10/25 07:46:33;;;;;;;7.60;5.07;;;;;;;;;;4957798;28;20452;-69
2023/10/25 07:48:58;;;;;;;8.90;5.20;;;;;;;;;;4966558;28;20503;-70
2023/10/25 07:51:24;;;;;;;5.17;3.70;;;;;;;;;;4969917;28;20505;-71
2023/10/25 07:53:50;;;;;;;11.57;6.40;;;;;;;;;;4967809;28;20439;-71
2023/10/25 07:56:18;;;;;;;5.27;3.93;;;;;;;;;;4977364;28;20443;-71
2023/10/25 07:58:44;;;;;;;5.63;3.83;;;;;;;;;;4970193;28;20499;-70
2023/10/25 08:01:10;;;;;;;6.80;4.03;;;;;;;;;;4975077;28;20475;-71
2023/10/25 08:03:36;;;;;;;6.20;4.30;;;;;;;;;;4973565;28;20440;-74
2023/10/25 08:06:02;;;;;;;6.70;3.90;;;;;;;;;;4960263;28;20466;-70
2023/10/25 08:08:28;;;;;;;7.20;5.57;;;;;;;;;;4961410;28;20782;-71
2023/10/25 08:11:04;;;;;;;8.60;4.60;;;;;;;;;;4955329;28;20417;-70
2023/10/25 08:13:31;;;;;;;6.50;4.10;;;;;;;;;;4955098;28;20416;-70
2023/10/25 08:16:00;;;;;;;9.70;5.17;;;;;;;;;;4968054;28;20989;-73
2023/10/25 08:18:30;;;;;;;7.10;4.90;;;;;;;;;;4974358;28;20978;-72
2023/10/25 08:20:57;;;;;;;10.50;4.87;;;;;;;;;;4959085;28;20490;-70
2023/10/25 08:23:23;;;;;;;17.07;5.00;;;;;;;;;;4959990;28;20428;-72
2023/10/25 08:25:50;;;;;;;7.80;5.17;;;;;;;;;;4959589;28;20443;-70
2023/10/25 08:28:16;;;;;;;10.93;5.27;;;;;;;;;;4954936;28;20480;-70
2023/10/25 08:30:42;;;;;;;7.83;5.80;;;;;;;;;;4962963;28;20435;-73
2023/10/25 08:33:11;;;;;;;17.97;6.40;;;;;;;;;;4967137;28;20418;-71
2023/10/25 08:35:37;;;;;;;12.20;6.40;;;;;;;;;;4959840;28;20499;-72
2023/10/25 08:38:04;;;;;;;8.67;5.77;;;;;;;;;;4954833;29;20451;-72
2023/10/25 08:40:31;;;;;;;9.90;6.73;;;;;;;;;;4955653;28;20464;-70
2023/10/25 08:43:01;;;;;;;11.00;6.37;;;;;;;;;;4954636;28;20413;-72
2023/10/25 08:45:28;;;;;;;13.50;7.10;;;;;;;;;;4970512;28;20433;-74
2023/10/25 08:47:54;;;;;;;10.57;6.33;;;;;;;;;;4958914;28;20783;-73
2023/10/25 08:50:20;;;;;;;8.50;5.30;;;;;;;;;;4970336;28;20455;-72
2023/10/25 08:52:50;;;;;;;7.40;5.77;;;;;;;;;;4973672;28;20412;-72
2023/10/25 08:55:18;;;;;;;10.00;5.50;;;;;;;;;;4963057;28;20444;-73
2023/10/25 08:57:44;;;;;;;8.57;5.47;;;;;;;;;;4954472;29;20428;-71
2023/10/25 09:00:12;;;;;;;10.20;6.50;;;;;;;;;;4961713;28;20463;-74
2023/10/25 09:02:38;;;;;;;16.40;5.57;;;;;;;;;;4973469;28;20416;-73
2023/10/25 09:05:08;;;;;;;14.23;6.40;;;;;;;;;;4973582;28;20457;-73
2023/10/25 09:07:35;;;;;;;10.10;5.57;;;;;;;;;;4973746;28;20727;-70
2023/10/25 09:10:03;;;;;;;11.80;6.00;;;;;;;;;;4969740;28;20515;-71
2023/10/25 09:12:30;;;;;;;9.57;5.83;;;;;;;;;;4973003;28;20420;-71
2023/10/25 09:14:56;;;;;;;12.03;6.00;;;;;;;;;;4973467;28;20428;-72
2023/10/25 09:17:22;;;;;;;12.20;5.47;;;;;;;;;;4974060;28;20428;-73
2023/10/25 09:19:48;;;;;;;6.23;4.93;;;;;;;;;;4974044;28;20416;-72
2023/10/25 09:22:28;;;;;;;11.10;5.80;;;;;;;;;;4975359;28;20416;-71
2023/10/25 09:24:55;;;;;;;13.80;5.40;;;;;;;;;;4973152;28;20420;-72
2023/10/25 09:27:22;;;;;;;11.13;5.63;;;;;;;;;;4973627;28;20404;-72
2023/10/25 09:29:48;;;;;;;10.57;5.73;;;;;;;;;;4972924;28;20431;-72
2023/10/25 09:32:14;;;;;;;8.07;5.47;;;;;;;;;;4972997;28;20408;-73
2023/10/25 09:34:40;;;;;;;13.63;6.70;;;;;;;;;;4973033;28;20507;-71
2023/10/25 09:37:06;;;;;;;13.37;5.87;;;;;;;;;;4972801;28;20487;-71
2023/10/25 09:39:35;;;;;;;18.73;7.13;;;;;;;;;;4970459;28;20411;-71
2023/10/25 09:42:02;;;;;;;12.00;7.00;;;;;;;;;;4963477;28;20503;-71
2023/10/25 09:44:31;;;;;;;15.73;5.80;;;;;;;;;;4971288;28;20408;-70
2023/10/25 09:46:59;;;;;;;11.40;7.50;;;;;;;;;;4968615;28;20522;-70
2023/10/25 09:49:31;;;;;;;11.13;5.90;;;;;;;;;;4972545;28;20499;-73
2023/10/25 09:52:05;;;;;;;15.33;6.90;;;;;;;;;;4956194;29;20912;-73
2023/10/25 09:54:35;;;;;;;15.73;7.90;;;;;;;;;;4956002;28;20436;-73
2023/10/25 09:57:02;;;;;;;12.60;5.83;;;;;;;;;;4961947;28;20952;-72
2023/10/25 09:59:29;;;;;;;14.80;7.50;;;;;;;;;;4971442;28;20923;-72
2023/10/25 10:01:56;;;;;;;13.60;7.13;;;;;;;;;;4953437;29;20578;-73
2023/10/25 10:04:54;;;;;;;15.63;6.80;;;;;;;;;;4953660;29;20412;-74
2023/10/25 10:07:32;;;;;;;16.20;6.77;;;;;;;;;;4964041;28;20429;-74
2023/10/25 10:10:10;;;;;;;11.80;6.70;;;;;;;;;;4953397;28;20973;-75
2023/10/25 10:12:37;;;;;;;12.93;7.03;;;;;;;;;;4968555;28;20424;-76
2023/10/25 10:15:03;;;;;;;12.50;6.53;;;;;;;;;;4967434;28;20487;-75
2023/10/25 10:17:34;;;;;;;7.83;5.80;;;;;;;;;;4970769;28;20455;-74
2023/10/25 10:20:04;;;;;;;11.43;5.50;;;;;;;;;;4953254;28;20416;-73
2023/10/25 10:22:30;;;;;;;15.20;6.33;;;;;;;;;;4960628;28;20841;-73
2023/10/25 10:24:57;;;;;;;13.03;5.57;;;;;;;;;;4969052;28;20471;-73
2023/10/25 10:27:54;;;;;;;10.57;5.93;;;;;;;;;;4953309;29;20413;-73
2023/10/25 10:30:38;;;;;;;9.67;6.00;;;;;;;;;;4947324;28;20476;-73
2023/10/25 10:33:07;;;;;;;7.87;4.43;;;;;;;;;;4953347;29;20905;-74
2023/10/25 10:35:33;;;;;;;10.00;6.80;;;;;;;;;;4953300;28;20433;-74
2023/10/25 10:38:00;;;;;;;18.40;6.20;;;;;;;;;;4952801;29;20472;-73
2023/10/25 10:40:26;;;;;;;6.13;4.40;;;;;;;;;;4952837;29;20468;-72
2023/10/25 10:42:52;;;;;;;8.30;4.80;;;;;;;;;;4953138;29;20423;-73
2023/10/25 10:45:19;;;;;;;7.43;4.20;;;;;;;;;;4958058;28;20924;-73
2023/10/25 10:48:04;;;;;;;22.03;5.03;;;;;;;;;;4972409;28;20498;-74
2023/10/25 10:50:30;;;;;;;8.73;3.80;;;;;;;;;;4971899;28;20447;-72
2023/10/25 10:52:57;;;;;;;6.33;3.50;;;;;;;;;;4972629;28;20907;-73
2023/10/25 10:55:24;;;;;;;8.33;4.10;;;;;;;;;;4967620;28;20467;-72
2023/10/25 10:57:50;;;;;;;3.90;3.30;;;;;;;;;;4953070;29;20480;-73
2023/10/25 11:00:17;;;;;;;5.90;3.43;;;;;;;;;;4952826;28;20468;-74
2023/10/25 11:02:50;;;;;;;8.10;4.10;;;;;;;;;;4953707;28;20479;-73
2023/10/25 11:05:19;;;;;;;4.47;3.20;;;;;;;;;;4956612;28;20428;-74
2023/10/25 11:07:47;;;;;;;8.83;4.00;;;;;;;;;;4956940;29;20420;-75
2023/10/25 11:10:13;;;;;;;9.17;3.63;;;;;;;;;;4947126;28;20428;-73
2023/10/25 11:12:39;;;;;;;7.73;3.67;;;;;;;;;;4956700;28;20425;-74
2023/10/25 11:15:06;;;;;;;7.60;4.07;;;;;;;;;;4950978;28;20438;-74
2023/10/25 11:17:32;;;;;;;5.70;3.33;;;;;;;;;;4939238;29;20431;-73
2023/10/25 11:19:59;;;;;;;9.97;3.73;;;;;;;;;;4956232;28;20440;-73
2023/10/25 11:22:25;;;;;;;6.30;3.90;;;;;;;;;;4956288;29;20963;-72
2023/10/25 11:24:51;;;;;;;6.13;3.20;;;;;;;;;;4956233;29;20779;-72
2023/10/25 11:27:18;;;;;;;6.37;3.33;;;;;;;;;;4956190;28;20986;-74
2023/10/25 11:29:44;;;;;;;4.23;3.63;;;;;;;;;;4972498;28;20432;-75
2023/10/25 11:32:14;;;;;;;4.70;3.30;;;;;;;;;;4957737;28;20425;-73
2023/10/25 11:34:44;;;;;;;4.33;3.13;;;;;;;;;;4956555;28;20428;-74
2023/10/25 11:37:11;;;;;;;13.27;4.00;;;;;;;;;;4969409;28;20455;-75
2023/10/25 11:40:01;;;;;;;14.80;3.57;;;;;;;;;;4973932;28;20431;-73
2023/10/25 11:42:27;;;;;;;4.83;3.00;;;;;;;;;;4974132;28;20448;-74
2023/10/25 11:44:54;;;;;;;6.23;3.17;;;;;;;;;;4973273;28;20420;-74
2023/10/25 11:47:23;;;;;;;21.53;3.37;;;;;;;;;;4973234;28;20420;-74
2023/10/25 11:49:52;;;;;;;10.80;2.90;;;;;;;;;;4974441;28;20443;-74
2023/10/25 11:52:22;;;;;;;4.97;2.30;;;;;;;;;;4974602;28;20452;-73
2023/10/25 11:54:55;;;;;;;6.33;2.70;;;;;;;;;;4974929;28;20495;-75
2023/10/25 11:57:21;;;;;;;4.53;2.50;;;;;;;;;;4974958;28;20478;-73
2023/10/25 11:59:47;;;;;;;5.13;2.63;;;;;;;;;;4974587;28;20443;-73
2023/10/25 12:02:13;;;;;;;3.70;2.30;;;;;;;;;;4974513;28;20510;-73
2023/10/25 12:04:39;;;;;;;4.40;1.70;;;;;;;;;;4974805;28;20419;-74
2023/10/25 12:07:04;;;;;;;2.10;1.77;;;;;;;;;;4974594;28;20444;-73
2023/10/25 12:09:31;;;;;;;3.50;1.70;;;;;;;;;;4974373;28;20416;-73
2023/10/25 12:11:57;;;;;;;3.13;1.60;;;;;;;;;;4974483;28;20427;-74
2023/10/25 12:14:23;;;;;;;4.80;2.90;;;;;;;;;;4974426;28;20420;-74
2023/10/25 12:16:48;;;;;;;4.00;1.60;;;;;;;;;;4973785;28;20555;-74
2023/10/25 12:19:15;;;;;;;3.53;1.67;;;;;;;;;;4974343;28;20451;-73
2023/10/25 12:21:40;;;;;;;2.00;1.60;;;;;;;;;;4970162;28;20514;-76
2023/10/25 12:24:07;;;;;;;3.83;1.60;;;;;;;;;;4974103;28;20428;-73
2023/10/25 12:26:32;;;;;;;7.50;1.83;;;;;;;;;;4970193;28;20444;-73
2023/10/25 12:28:58;;;;;;;1.73;1.57;;;;;;;;;;4964568;28;20420;-73
2023/10/25 12:31:24;;;;;;;2.37;1.73;;;;;;;;;;4954768;28;20423;-73
2023/10/25 12:33:53;;;;;;;2.90;1.60;;;;;;;;;;4970962;28;20426;-73
2023/10/25 12:36:19;;;;;;;3.37;1.43;;;;;;;;;;4949678;28;20531;-74
2023/10/25 12:38:45;;;;;;;2.17;1.80;;;;;;;;;;4954558;29;20861;-74
2023/10/25 12:41:11;;;;;;;2.97;1.63;;;;;;;;;;4954490;28;20468;-74
2023/10/25 12:43:37;;;;;;;3.00;1.63;;;;;;;;;;4954736;29;20496;-74
2023/10/25 12:46:03;;;;;;;3.03;1.33;;;;;;;;;;4956710;28;20480;-76
2023/10/25 12:48:29;;;;;;;3.40;1.70;;;;;;;;;;4970044;28;20424;-75
2023/10/25 12:50:55;;;;;;;2.07;1.30;;;;;;;;;;4956872;28;20436;-74
2023/10/25 12:53:21;;;;;;;3.10;1.43;;;;;;;;;;4962592;28;20449;-74
2023/10/25 12:55:47;;;;;;;2.40;1.20;;;;;;;;;;4956427;28;20440;-74
2023/10/25 12:58:13;;;;;;;4.37;2.10;;;;;;;;;;4959731;29;20449;-76
2023/10/25 13:00:39;;;;;;;3.27;1.60;;;;;;;;;;4960847;28;20471;-75
2023/10/25 13:03:05;;;;;;;3.07;1.50;;;;;;;;;;4953550;23;20858;-71
2023/10/25 13:05:31;;;;;;;2.60;1.30;;;;;;;;;;4955140;29;20409;-72
2023/10/25 13:07:56;;;;;;;2.20;1.27;;;;;;;;;;4958352;29;20480;-70
2023/10/25 13:10:22;;;;;;;1.80;1.20;;;;;;;;;;4942057;28;20430;-70
2023/10/25 13:12:48;;;;;;;1.87;1.60;;;;;;;;;;4936118;29;20529;-70
2023/10/25 13:15:14;;;;;;;1.57;1.20;;;;;;;;;;4918163;29;20929;-73
2023/10/25 13:17:40;;;;;;;3.30;1.60;;;;;;;;;;4935452;29;20418;-72
2023/10/25 13:20:08;;;;;;;1.50;1.20;;;;;;;;;;4918097;29;20421;-73
2023/10/25 13:22:35;;;;;;;3.23;1.50;;;;;;;;;;4935129;29;20486;-71
2023/10/25 13:25:00;;;;;;;3.63;1.50;;;;;;;;;;4934785;29;20417;-70
2023/10/25 13:27:27;;;;;;;4.00;2.30;;;;;;;;;;4947121;29;20432;-70
2023/10/25 13:29:55;;;;;;;2.57;1.50;;;;;;;;;;4953615;29;20436;-73
2023/10/25 13:32:21;;;;;;;2.30;1.50;;;;;;;;;;4936477;29;20820;-70
2023/10/25 13:34:47;;;;;;;2.53;1.60;;;;;;;;;;4937841;29;20427;-69
2023/10/25 13:37:13;;;;;;;2.10;1.50;;;;;;;;;;4953494;29;20457;-70
2023/10/25 13:39:40;;;;;;;3.17;2.00;;;;;;;;;;4953871;29;20409;-71
2023/10/25 13:42:06;;;;;;;3.13;1.40;;;;;;;;;;4936146;29;20482;-71
2023/10/25 13:44:33;;;;;;;3.90;1.90;;;;;;;;;;4953624;29;20487;-71
2023/10/25 13:46:59;;;;;;;2.80;1.40;;;;;;;;;;4953151;29;20924;-72
2023/10/25 13:49:24;;;;;;;3.60;1.57;;;;;;;;;;4954203;29;20421;-77
2023/10/25 13:51:50;;;;;;;2.03;1.77;;;;;;;;;;4929427;29;20481;-75
2023/10/25 13:54:16;;;;;;;1.60;1.37;;;;;;;;;;4947236;29;20924;-75
2023/10/25 13:56:42;;;;;;;3.10;1.40;;;;;;;;;;4953613;29;20428;-75
2023/10/25 13:59:08;;;;;;;1.27;1.20;;;;;;;;;;4935756;29;20495;-76
2023/10/25 14:01:35;;;;;;;1.80;1.37;;;;;;;;;;4938107;29;20476;-74
2023/10/25 14:04:00;;;;;;;1.77;1.33;;;;;;;;;;4956162;29;20413;-74
2023/10/25 14:06:26;;;;;;;1.77;1.50;;;;;;;;;;4936770;29;20432;-74
2023/10/25 14:08:52;;;;;;;2.30;1.47;;;;;;;;;;4953184;29;20433;-74
2023/10/25 14:11:18;;;;;;;1.73;1.47;;;;;;;;;;4952577;29;20417;-74
2023/10/25 14:13:45;;;;;;;4.27;2.00;;;;;;;;;;4935598;29;20448;-74
2023/10/25 14:16:12;;;;;;;2.77;1.80;;;;;;;;;;4952231;29;20429;-74
2023/10/25 14:18:38;;;;;;;3.77;2.13;;;;;;;;;;4952992;29;20488;-74
2023/10/25 14:21:10;;;;;;;3.33;1.90;;;;;;;;;;4951944;29;20515;-74
2023/10/25 14:23:36;;;;;;;4.00;1.50;;;;;;;;;;4952251;29;20449;-73
2023/10/25 14:26:06;;;;;;;1.83;1.60;;;;;;;;;;4935628;29;20425;-73
2023/10/25 14:28:32;;;;;;;4.47;1.50;;;;;;;;;;4933998;29;20932;-74
2023/10/25 14:30:58;;;;;;;2.00;1.90;;;;;;;;;;4933158;29;20422;-74
2023/10/25 14:33:24;;;;;;;4.40;1.60;;;;;;;;;;4938370;29;20456;-73
2023/10/25 14:35:50;;;;;;;4.73;2.53;;;;;;;;;;4941571;29;20552;-74
2023/10/25 14:38:15;;;;;;;3.13;1.80;;;;;;;;;;4936232;28;20516;-74
2023/10/25 14:40:42;;;;;;;2.93;1.93;;;;;;;;;;4936681;29;20463;-74
2023/10/25 14:43:08;;;;;;;2.20;1.50;;;;;;;;;;4941008;29;20506;-74
2023/10/25 14:45:35;;;;;;;2.87;1.50;;;;;;;;;;4936582;29;20497;-73
2023/10/25 14:48:00;;;;;;;2.03;1.70;;;;;;;;;;4936497;29;20417;-74
2023/10/25 14:50:26;;;;;;;1.70;1.60;;;;;;;;;;4936434;29;20421;-73
2023/10/25 14:52:52;;;;;;;3.07;1.50;;;;;;;;;;4941607;29;20528;-74
2023/10/25 14:55:18;;;;;;;3.43;1.90;;;;;;;;;;4936288;29;20491;-73
2023/10/25 14:57:44;;;;;;;4.47;1.30;;;;;;;;;;4936178;29;20784;-73
2023/10/25 15:00:11;;;;;;;2.70;1.70;;;;;;;;;;4936113;29;20440;-72
2023/10/25 15:02:37;;;;;;;2.10;1.30;;;;;;;;;;4881523;29;1105123;-73
2023/10/25 15:05:04;;;;;;;3.30;1.70;;;;;;;;;;4938004;29;20413;-72
2023/10/25 15:07:30;;;;;;;1.50;1.43;;;;;;;;;;4948892;29;20436;-72
2023/10/25 15:09:56;;;;;;;2.40;1.53;;;;;;;;;;4956510;29;20413;-74
2023/10/25 15:12:22;;;;;;;2.17;1.70;;;;;;;;;;4956880;28;20823;-78
2023/10/25 15:14:48;;;;;;;1.80;1.40;;;;;;;;;;4940183;29;20436;-74
2023/10/25 15:17:14;;;;;;;1.70;1.60;;;;;;;;;;4953172;29;20983;-74
2023/10/25 15:19:40;;;;;;;1.47;1.17;;;;;;;;;;4957111;29;20967;-73
2023/10/25 15:22:06;;;;;;;3.00;1.57;;;;;;;;;;4945527;29;20469;-74
2023/10/25 15:24:37;;;;;;;7.13;1.47;;;;;;;;;;4955945;29;20471;-74
2023/10/25 15:27:03;;;;;;;2.97;1.53;;;;;;;;;;4956211;29;20405;-73
2023/10/25 15:29:29;;;;;;;2.50;1.40;;;;;;;;;;4956396;29;20963;-73
2023/10/25 15:31:55;;;;;;;2.23;1.57;;;;;;;;;;4955657;28;20456;-74
2023/10/25 15:34:21;;;;;;;5.90;1.80;;;;;;;;;;4956370;29;20413;-73
2023/10/25 15:36:47;;;;;;;3.87;1.57;;;;;;;;;;4951182;29;20472;-73
2023/10/25 15:39:13;;;;;;;6.83;2.37;;;;;;;;;;4954979;29;20436;-74
2023/10/25 15:41:39;;;;;;;4.67;2.70;;;;;;;;;;4950381;28;20535;-74
2023/10/25 15:44:05;;;;;;;6.67;2.30;;;;;;;;;;4952129;29;20421;-74
2023/10/25 15:46:31;;;;;;;8.33;2.03;;;;;;;;;;4943924;29;20422;-74
2023/10/25 15:48:58;;;;;;;3.17;1.87;;;;;;;;;;4943940;28;20517;-74
2023/10/25 15:51:25;;;;;;;2.70;1.57;;;;;;;;;;4936187;29;20486;-74
2023/10/25 15:53:54;;;;;;;3.73;1.50;;;;;;;;;;4928396;29;20491;-74
2023/10/25 15:56:20;;;;;;;1.73;1.70;;;;;;;;;;4939584;29;20424;-75
2023/10/25 15:58:46;;;;;;;1.73;1.30;;;;;;;;;;4947309;29;20447;-74
2023/10/25 16:01:13;;;;;;;5.07;1.80;;;;;;;;;;4947406;29;20556;-74
2023/10/25 16:03:39;;;;;;;3.87;2.17;;;;;;;;;;4949604;29;20528;-72
2023/10/25 16:06:07;;;;;;;2.07;1.97;;;;;;;;;;4944434;29;20908;-74
2023/10/25 16:08:34;;;;;;;6.17;2.67;;;;;;;;;;4954387;29;20432;-74
2023/10/25 16:11:00;;;;;;;9.77;3.13;;;;;;;;;;4946966;28;20428;-74
2023/10/25 16:13:26;;;;;;;14.13;4.90;;;;;;;;;;4938333;29;20445;-75
2023/10/25 16:15:53;;;;;;;7.63;2.87;;;;;;;;;;4950876;29;20456;-71
2023/10/25 16:18:19;;;;;;;5.87;2.50;;;;;;;;;;4946149;29;20437;-72
2023/10/25 16:20:46;;;;;;;1.47;1.40;;;;;;;;;;4951520;29;20804;-73
2023/10/25 16:23:12;;;;;;;2.80;1.90;;;;;;;;;;4926825;29;20594;-73
2023/10/25 16:25:38;;;;;;;4.10;1.40;;;;;;;;;;4934823;29;20483;-74
2023/10/25 16:28:05;;;;;;;2.10;1.70;;;;;;;;;;4954224;29;20535;-74
2023/10/25 16:30:35;;;;;;;3.10;1.90;;;;;;;;;;4946434;29;20938;-74
2023/10/25 16:33:01;;;;;;;4.93;1.70;;;;;;;;;;4955145;29;20866;-74
2023/10/25 16:35:27;;;;;;;2.23;1.70;;;;;;;;;;4930677;29;20436;-73
2023/10/25 16:37:54;;;;;;;4.80;2.03;;;;;;;;;;4937930;29;20430;-73
2023/10/25 16:40:20;;;;;;;3.40;2.07;;;;;;;;;;4954779;29;20424;-72
2023/10/25 16:42:47;;;;;;;3.00;1.70;;;;;;;;;;4954497;29;20441;-71
2023/10/25 16:45:13;;;;;;;2.90;2.00;;;;;;;;;;4937304;29;20425;-73
2023/10/25 16:47:39;;;;;;;7.10;1.60;;;;;;;;;;4935597;29;20424;-72
2023/10/25 16:50:05;;;;;;;1.20;1.10;;;;;;;;;;4935855;29;20425;-73
2023/10/25 16:52:31;;;;;;;1.90;1.00;;;;;;;;;;4950476;28;20475;-73
2023/10/25 16:54:58;;;;;;;1.10;1.00;;;;;;;;;;4935966;29;20893;-73
2023/10/25 16:57:24;;;;;;;1.20;1.13;;;;;;;;;;4935700;29;20414;-72
2023/10/25 16:59:50;;;;;;;1.20;1.17;;;;;;;;;;4934766;29;20468;-72
2023/10/25 17:02:16;;;;;;;4.67;1.40;;;;;;;;;;4934718;29;20564;-72
2023/10/25 17:04:42;;;;;;;2.20;1.40;;;;;;;;;;4935816;29;20930;-73
2023/10/25 17:07:09;;;;;;;17.10;3.77;;;;;;;;;;4942442;29;20823;-72
2023/10/25 17:09:35;;;;;;;5.53;3.37;;;;;;;;;;4919519;29;20422;-72
2023/10/25 17:12:01;;;;;;;4.30;2.87;;;;;;;;;;4938201;29;21156;-73
2023/10/25 17:14:27;;;;;;;3.80;2.23;;;;;;;;;;4947365;28;20824;-75
2023/10/25 17:16:53;;;;;;;3.67;1.93;;;;;;;;;;4948885;29;20938;-74
2023/10/25 17:19:20;;;;;;;5.37;2.30;;;;;;;;;;4945656;29;20432;-76
2023/10/25 17:21:46;;;;;;;1.90;1.80;;;;;;;;;;4945161;29;20468;-72
2023/10/25 17:24:14;;;;;;;2.70;1.70;;;;;;;;;;4924505;29;20440;-73
2023/10/25 17:26:40;;;;;;;1.13;0.90;;;;;;;;;;4935045;29;20465;-73
2023/10/25 17:29:06;;;;;;;1.70;1.50;;;;;;;;;;4934826;29;20422;-75
2023/10/25 17:31:32;;;;;;;2.37;1.37;;;;;;;;;;4936146;29;20561;-73
2023/10/25 17:33:58;;;;;;;3.30;1.50;;;;;;;;;;4953485;29;21052;-73
2023/10/25 17:36:24;;;;;;;8.40;1.70;;;;;;;;;;4935732;29;20422;-75
2023/10/25 17:38:50;;;;;;;7.70;3.43;;;;;;;;;;4944368;29;21006;-75
2023/10/25 17:41:17;;;;;;;8.47;3.80;;;;;;;;;;4946000;29;20627;-74
2023/10/25 17:43:43;;;;;;;5.37;2.07;;;;;;;;;;4941894;28;20441;-74
2023/10/25 17:46:09;;;;;;;2.13;1.60;;;;;;;;;;4950973;28;20444;-74
2023/10/25 17:48:35;;;;;;;2.93;2.07;;;;;;;;;;4945798;29;20409;-75
2023/10/25 17:51:05;;;;;;;2.73;1.60;;;;;;;;;;4944153;29;20425;-75
2023/10/25 17:53:31;;;;;;;2.37;1.50;;;;;;;;;;4934627;29;21029;-77
2023/10/25 17:55:57;;;;;;;2.40;1.70;;;;;;;;;;4951637;29;20519;-75
2023/10/25 17:58:23;;;;;;;2.00;1.40;;;;;;;;;;4953557;29;20472;-75
2023/10/25 18:00:49;;;;;;;3.17;1.47;;;;;;;;;;4954202;29;20470;-76
2023/10/25 18:03:15;;;;;;;3.47;2.20;;;;;;;;;;4949240;28;20461;-75
2023/10/25 18:05:41;;;;;;;4.73;1.87;;;;;;;;;;4936156;29;20410;-76
2023/10/25 18:08:08;;;;;;;6.60;2.60;;;;;;;;;;4948281;29;20421;-76
2023/10/25 18:10:38;;;;;;;7.13;4.20;;;;;;;;;;4944323;29;20432;-76
2023/10/25 18:13:04;;;;;;;4.10;2.47;;;;;;;;;;4956775;28;20472;-75
2023/10/25 18:15:30;;;;;;;5.57;2.63;;;;;;;;;;4957931;29;20440;-75
2023/10/25 18:17:58;;;;;;;5.53;2.53;;;;;;;;;;4957552;29;20409;-75
2023/10/25 18:20:24;;;;;;;3.80;2.03;;;;;;;;;;4957610;29;20412;-76
2023/10/25 18:22:50;;;;;;;4.10;1.97;;;;;;;;;;4957108;29;20798;-75
2023/10/25 18:25:16;;;;;;;8.43;2.37;;;;;;;;;;4921855;29;20425;-76
2023/10/25 18:27:42;;;;;;;3.83;2.27;;;;;;;;;;4937843;29;20848;-75
2023/10/25 18:30:08;;;;;;;7.33;3.30;;;;;;;;;;4921080;29;20417;-75
2023/10/25 18:32:35;;;;;;;9.97;4.10;;;;;;;;;;4949190;28;20811;-77
2023/10/25 18:35:01;;;;;;;4.93;3.53;;;;;;;;;;4957910;28;20416;-74
2023/10/25 18:37:27;;;;;;;9.30;3.20;;;;;;;;;;4944696;29;20438;-75
2023/10/25 18:39:56;;;;;;;9.53;3.57;;;;;;;;;;4967367;29;20471;-75
2023/10/25 18:42:23;;;;;;;3.10;2.13;;;;;;;;;;4969753;29;20480;-75
2023/10/25 18:44:52;;;;;;;4.70;2.70;;;;;;;;;;4961005;29;20798;-74
2023/10/25 18:47:18;;;;;;;3.57;2.13;;;;;;;;;;4944336;29;20457;-75
2023/10/25 18:49:45;;;;;;;3.20;2.50;;;;;;;;;;4949528;29;20460;-75
2023/10/25 18:52:11;;;;;;;3.47;2.50;;;;;;;;;;4949233;29;20442;-75
2023/10/25 18:54:37;;;;;;;3.37;2.20;;;;;;;;;;4958575;29;20421;-75
2023/10/25 18:57:03;;;;;;;4.17;2.10;;;;;;;;;;4937754;29;20448;-76
2023/10/25 18:59:30;;;;;;;4.10;2.30;;;;;;;;;;4945507;29;20417;-69
2023/10/25 19:01:56;;;;;;;3.10;1.97;;;;;;;;;;4938056;29;20481;-75
2023/10/25 19:04:22;;;;;;;2.70;1.60;;;;;;;;;;4937751;29;20428;-75
2023/10/25 19:06:48;;;;;;;3.13;1.70;;;;;;;;;;4937759;29;20413;-75
2023/10/25 19:09:14;;;;;;;2.63;1.53;;;;;;;;;;4921325;29;20429;-75
2023/10/25 19:11:40;;;;;;;3.73;2.40;;;;;;;;;;4944322;29;20417;-75
2023/10/25 19:14:06;;;;;;;4.70;1.83;;;;;;;;;;4937455;29;20864;-77
2023/10/25 19:16:32;;;;;;;3.23;1.60;;;;;;;;;;4937659;29;20417;-74
2023/10/25 19:18:58;;;;;;;2.83;1.50;;;;;;;;;;4923343;29;20414;-74
2023/10/25 19:21:29;;;;;;;1.77;1.40;;;;;;;;;;4952748;29;20826;-74
2023/10/25 19:23:57;;;;;;;1.67;1.27;;;;;;;;;;4942701;29;20731;-74
2023/10/25 19:26:23;;;;;;;2.90;1.80;;;;;;;;;;4951929;29;20413;-74
2023/10/25 19:28:49;;;;;;;1.33;1.20;;;;;;;;;;4939736;29;20419;-74
2023/10/25 19:31:15;;;;;;;1.40;1.40;;;;;;;;;;4956216;29;20452;-75
2023/10/25 19:33:41;;;;;;;3.33;1.67;;;;;;;;;;4956795;28;20446;-74
2023/10/25 19:36:12;;;;;;;1.70;1.50;;;;;;;;;;4939258;29;20436;-75